createdAt,value
2022-08-26T00:02:11.569Z,21.67
2022-08-26T00:04:39.826Z,24.40
2022-08-26T00:07:09.126Z,26.63
2022-08-26T00:09:38.881Z,21.83
2022-08-26T00:12:07.729Z,26.52
2022-08-26T00:14:37.455Z,19.23
2022-08-26T00:17:05.800Z,24.48
2022-08-26T00:19:36.581Z,24.98
2022-08-26T00:22:04.494Z,20.15
2022-08-26T00:24:33.706Z,24.23
2022-08-26T00:27:01.536Z,26.95
2022-08-26T00:29:31.969Z,24.05
2022-08-26T00:32:04.106Z,20.63
2022-08-26T00:34:32.055Z,23.55
2022-08-26T00:36:59.867Z,23.27
2022-08-26T00:39:27.897Z,22.60
2022-08-26T00:41:57.221Z,20.73
2022-08-26T00:44:25.285Z,24.52
2022-08-26T00:46:58.281Z,20.57
2022-08-26T00:49:41.511Z,16.70
2022-08-26T00:52:13.238Z,17.45
2022-08-26T00:54:47.647Z,21.15
2022-08-26T00:57:19.466Z,19.90
2022-08-26T00:59:50.024Z,20.45
2022-08-26T01:02:21.210Z,19.88
2022-08-26T01:04:54.405Z,17.10
2022-08-26T01:07:26.066Z,19.08
2022-08-26T01:09:54.294Z,21.25
2022-08-26T01:12:25.758Z,24.23
2022-08-26T01:14:53.838Z,23.55
2022-08-26T01:17:21.825Z,25.17
2022-08-26T01:19:53.420Z,26.70
2022-08-26T01:22:28.187Z,27.02
2022-08-26T01:24:59.710Z,23.88
2022-08-26T01:27:32.668Z,21.63
2022-08-26T01:30:02.203Z,22.27
2022-08-26T01:32:32.905Z,23.80
2022-08-26T01:35:01.481Z,19.00
2022-08-26T01:37:36.543Z,25.00
2022-08-26T01:40:10.646Z,19.85
2022-08-26T01:42:38.637Z,18.98
2022-08-26T01:45:11.228Z,19.88
2022-08-26T01:47:39.885Z,19.95
2022-08-26T01:50:15.693Z,19.42
2022-08-26T01:52:57.052Z,22.48
2022-08-26T01:55:27.706Z,18.23
2022-08-26T01:58:04.611Z,17.77
2022-08-26T02:00:34.985Z,19.38
2022-08-26T02:03:18.730Z,19.20
2022-08-26T02:05:48.741Z,18.45
2022-08-26T02:08:24.735Z,15.82
2022-08-26T02:10:55.517Z,16.42
2022-08-26T02:13:26.615Z,19.00
2022-08-26T02:15:55.152Z,22.17
2022-08-26T02:18:24.156Z,17.13
2022-08-26T02:20:54.925Z,16.40
2022-08-26T02:23:24.053Z,18.13
2022-08-26T02:26:00.476Z,14.55
2022-08-26T02:28:32.063Z,16.55
2022-08-26T02:31:00.181Z,16.40
2022-08-26T02:33:30.598Z,20.02
2022-08-26T02:35:59.009Z,16.85
2022-08-26T02:38:26.863Z,15.82
2022-08-26T02:40:56.320Z,16.92
2022-08-26T02:43:31.554Z,15.02
2022-08-26T02:46:02.438Z,16.27
2022-08-26T02:48:31.614Z,16.85
2022-08-26T02:53:28.168Z,13.10
2022-08-26T02:56:01.119Z,12.68
2022-08-26T02:58:29.270Z,11.95
2022-08-26T03:00:57.162Z,14.30
2022-08-26T03:03:25.210Z,14.30
2022-08-26T03:05:53.193Z,11.35
2022-08-26T03:10:50.789Z,13.05
2022-08-26T03:13:19.985Z,14.13
2022-08-26T03:15:47.936Z,16.42
2022-08-26T03:18:16.169Z,10.68
2022-08-26T03:20:44.100Z,12.37
2022-08-26T03:23:12.600Z,17.20
2022-08-26T03:25:43.012Z,10.65
2022-08-26T03:28:11.185Z,15.57
2022-08-26T03:30:44.202Z,15.00
2022-08-26T03:33:14.576Z,13.73
2022-08-26T03:38:12.041Z,17.30
2022-08-26T03:40:40.063Z,11.70
2022-08-26T03:43:10.189Z,14.00
2022-08-26T03:45:40.881Z,11.32
2022-08-26T03:48:09.259Z,14.10
2022-08-26T03:50:37.208Z,10.07
2022-08-26T03:53:07.416Z,16.83
2022-08-26T03:55:41.036Z,12.68
2022-08-26T03:58:09.082Z,13.45
2022-08-26T04:00:37.185Z,16.55
2022-08-26T04:03:06.588Z,13.15
2022-08-26T04:05:38.534Z,12.32
2022-08-26T04:08:06.664Z,9.73
2022-08-26T04:10:34.581Z,10.85
2022-08-26T04:13:02.484Z,14.75
2022-08-26T04:15:30.378Z,12.80
2022-08-26T04:17:58.255Z,19.70
2022-08-26T04:20:28.920Z,9.07
2022-08-26T04:22:57.950Z,10.32
2022-08-26T04:27:53.458Z,9.75
2022-08-26T04:30:21.893Z,9.25
2022-08-26T04:32:49.790Z,16.33
2022-08-26T04:35:17.767Z,12.43
2022-08-26T04:37:47.836Z,12.90
2022-08-26T04:40:15.761Z,13.02
2022-08-26T04:42:44.323Z,13.73
2022-08-26T04:45:13.442Z,12.15
2022-08-26T04:47:42.098Z,10.68
2022-08-26T04:50:11.045Z,19.15
2022-08-26T04:55:08.818Z,18.33
2022-08-26T04:57:36.811Z,16.73
2022-08-26T05:00:06.129Z,14.02
2022-08-26T05:02:34.329Z,10.80
2022-08-26T05:05:02.407Z,12.67
2022-08-26T05:07:31.184Z,16.58
2022-08-26T05:10:00.229Z,16.02
2022-08-26T05:12:29.586Z,13.10
2022-08-26T05:14:57.643Z,11.70
2022-08-26T05:17:27.134Z,12.18
2022-08-26T05:19:55.467Z,11.90
2022-08-26T05:22:23.338Z,11.73
2022-08-26T05:24:51.147Z,12.00
2022-08-26T05:27:19.437Z,12.27
2022-08-26T05:29:54.521Z,10.55
2022-08-26T05:32:22.614Z,10.60
2022-08-26T05:34:55.357Z,11.80
2022-08-26T05:37:23.213Z,7.88
2022-08-26T05:39:51.540Z,10.52
2022-08-26T05:42:19.894Z,12.40
2022-08-26T05:44:53.906Z,10.48
2022-08-26T05:47:24.103Z,13.18
2022-08-26T05:49:52.259Z,13.30
2022-08-26T05:54:52.629Z,12.10
2022-08-26T05:57:20.463Z,11.27
2022-08-26T05:59:52.718Z,9.27
2022-08-26T06:02:20.625Z,10.73
2022-08-26T06:04:48.575Z,8.05
2022-08-26T06:07:17.045Z,7.30
2022-08-26T06:09:46.383Z,15.80
2022-08-26T06:12:15.812Z,7.85
2022-08-26T06:14:46.540Z,9.27
2022-08-26T06:17:18.254Z,10.00
2022-08-26T06:19:46.099Z,10.93
2022-08-26T06:22:27.850Z,10.15
2022-08-26T06:25:13.225Z,16.35
2022-08-26T06:27:41.123Z,9.23
2022-08-26T06:30:10.393Z,11.20
2022-08-26T06:32:39.658Z,10.52
2022-08-26T06:35:12.277Z,9.43
2022-08-26T06:37:40.411Z,8.98
2022-08-26T06:40:10.103Z,6.43
2022-08-26T06:42:39.620Z,13.57
2022-08-26T06:45:08.515Z,8.68
2022-08-26T06:47:36.938Z,10.13
2022-08-26T06:50:07.013Z,9.68
2022-08-26T06:52:35.239Z,9.27
2022-08-26T06:55:03.511Z,8.23
2022-08-26T06:57:32.951Z,11.02
2022-08-26T07:00:03.241Z,9.10
2022-08-26T07:02:32.036Z,10.70
2022-08-26T07:05:00.016Z,9.38
2022-08-26T07:07:29.519Z,8.52
2022-08-26T07:09:57.703Z,12.07
2022-08-26T07:12:25.801Z,8.37
2022-08-26T07:14:54.018Z,6.03
2022-08-26T07:17:21.830Z,10.47
2022-08-26T07:19:53.638Z,10.38
2022-08-26T07:22:21.488Z,7.13
2022-08-26T07:24:51.007Z,8.50
2022-08-26T07:27:18.933Z,9.25
2022-08-26T07:29:46.935Z,8.30
2022-08-26T07:32:16.194Z,9.20
2022-08-26T07:34:44.510Z,8.23
2022-08-26T07:37:12.461Z,8.57
2022-08-26T07:39:41.783Z,6.65
2022-08-26T07:42:14.358Z,6.50
2022-08-26T07:44:43.178Z,15.57
2022-08-26T07:47:25.417Z,8.07
2022-08-26T07:49:55.516Z,5.32
2022-08-26T07:52:27.452Z,7.07
2022-08-26T07:54:56.993Z,8.57
2022-08-26T07:57:26.534Z,9.80
2022-08-26T07:59:55.228Z,6.50
2022-08-26T08:02:23.722Z,5.30
2022-08-26T08:04:52.335Z,4.90
2022-08-26T08:07:20.473Z,7.93
2022-08-26T08:09:49.611Z,8.60
2022-08-26T08:12:18.015Z,10.55
2022-08-26T08:14:48.738Z,10.15
2022-08-26T08:17:17.103Z,9.00
2022-08-26T08:19:45.039Z,10.07
2022-08-26T08:22:17.763Z,8.13
2022-08-26T08:24:49.777Z,5.35
2022-08-26T08:27:23.894Z,10.60
2022-08-26T08:29:55.131Z,10.23
2022-08-26T08:32:23.844Z,7.28
2022-08-26T08:34:51.865Z,7.63
2022-08-26T08:37:20.167Z,9.07
2022-08-26T08:42:36.645Z,7.05
2022-08-26T08:45:11.491Z,6.28
2022-08-26T08:47:43.907Z,11.93
2022-08-26T08:50:22.769Z,7.82
2022-08-26T08:52:55.654Z,5.13
2022-08-26T08:55:29.012Z,7.72
2022-08-26T08:58:04.668Z,9.48
2022-08-26T09:00:44.168Z,7.07
2022-08-26T09:03:25.116Z,7.43
2022-08-26T09:05:55.431Z,6.90
2022-08-26T09:08:28.278Z,6.78
2022-08-26T09:10:59.213Z,6.63
2022-08-26T09:13:27.668Z,9.10
2022-08-26T09:16:06.711Z,8.93
2022-08-26T09:18:49.850Z,4.20
2022-08-26T09:21:20.611Z,7.07
2022-08-26T09:23:52.112Z,10.25
2022-08-26T09:26:25.945Z,8.20
2022-08-26T09:28:58.868Z,7.70
2022-08-26T09:31:29.566Z,5.22
2022-08-26T09:34:08.698Z,8.65
2022-08-26T09:36:41.476Z,7.00
2022-08-26T09:39:27.390Z,12.23
2022-08-26T09:42:14.454Z,7.88
2022-08-26T09:44:57.009Z,9.35
2022-08-26T09:47:29.752Z,6.93
2022-08-26T09:50:00.815Z,8.88
2022-08-26T09:52:30.054Z,7.20
2022-08-26T09:55:11.377Z,7.28
2022-08-26T09:57:46.999Z,4.97
2022-08-26T10:00:27.600Z,5.45
2022-08-26T10:02:58.263Z,3.80
2022-08-26T10:05:39.759Z,5.65
2022-08-26T10:08:25.042Z,8.77
2022-08-26T10:10:53.710Z,4.07
2022-08-26T10:13:26.650Z,7.13
2022-08-26T10:16:02.451Z,8.25
2022-08-26T10:18:34.775Z,7.88
2022-08-26T10:21:07.410Z,10.10
2022-08-26T10:26:19.280Z,5.35
2022-08-26T10:28:52.820Z,9.73
2022-08-26T10:31:28.614Z,5.57
2022-08-26T10:34:00.511Z,5.65
2022-08-26T10:37:14.568Z,6.95
2022-08-26T10:39:42.969Z,8.52
2022-08-26T10:42:17.824Z,11.60
2022-08-26T10:44:50.664Z,11.25
2022-08-26T10:47:21.694Z,6.80
2022-08-26T10:49:57.502Z,7.10
2022-08-26T10:52:39.291Z,7.97
2022-08-26T10:55:16.069Z,8.15
2022-08-26T10:57:50.663Z,3.20
2022-08-26T11:00:40.793Z,6.38
2022-08-26T11:03:24.590Z,9.90
2022-08-26T11:06:21.156Z,2.53
2022-08-26T11:08:49.906Z,7.32
2022-08-26T11:11:45.277Z,7.57
2022-08-26T11:14:42.048Z,11.52
2022-08-26T11:17:58.194Z,7.85
2022-08-26T11:20:41.519Z,5.57
2022-08-26T11:23:50.708Z,5.32
2022-08-26T11:26:32.804Z,8.70
2022-08-26T11:29:13.551Z,19.02
2022-08-26T11:31:56.997Z,43.78
2022-08-26T11:34:53.958Z,9.45
2022-08-26T11:37:25.802Z,5.80
2022-08-26T11:39:57.181Z,4.82
2022-08-26T11:42:33.217Z,4.47
2022-08-26T11:45:05.673Z,7.30
2022-08-26T11:47:33.896Z,6.07
2022-08-26T11:50:10.863Z,7.22
2022-08-26T11:52:38.726Z,8.25
2022-08-26T11:55:11.096Z,9.30
2022-08-26T11:57:44.850Z,8.82
2022-08-26T12:00:22.643Z,6.75
2022-08-26T12:02:52.665Z,12.15
2022-08-26T12:05:27.212Z,6.53
2022-08-26T12:08:02.315Z,5.28
2022-08-26T12:10:34.248Z,12.00
2022-08-26T12:13:04.715Z,5.57
2022-08-26T12:15:34.911Z,7.18
2022-08-26T12:18:28.574Z,7.30
2022-08-26T12:21:00.430Z,10.27
2022-08-26T12:23:40.269Z,5.18
2022-08-26T12:26:14.161Z,7.65
2022-08-26T12:28:47.039Z,9.93
2022-08-26T12:31:25.502Z,6.22
2022-08-26T12:33:54.623Z,4.68
2022-08-26T12:36:28.716Z,7.47
2022-08-26T12:38:58.523Z,8.35
2022-08-26T12:41:50.531Z,8.93
2022-08-26T12:44:53.381Z,6.45
2022-08-26T12:47:33.909Z,5.13
2022-08-26T12:52:52.203Z,4.90
2022-08-26T12:55:22.678Z,10.85
2022-08-26T12:58:14.743Z,5.82
2022-08-26T13:00:44.888Z,13.45
2022-08-26T13:03:38.063Z,5.43
2022-08-26T13:06:29.722Z,8.10
2022-08-26T13:08:59.470Z,7.10
2022-08-26T13:11:31.571Z,6.85
2022-08-26T13:14:03.083Z,6.70
2022-08-26T13:16:36.227Z,8.38
2022-08-26T13:21:43.538Z,4.97
2022-08-26T13:24:13.989Z,9.60
2022-08-26T13:26:42.805Z,7.70
2022-08-26T13:29:12.988Z,8.27
2022-08-26T13:31:43.944Z,5.28
2022-08-26T13:34:15.307Z,5.47
2022-08-26T13:36:44.952Z,10.35
2022-08-26T13:39:13.379Z,5.68
2022-08-26T13:41:42.233Z,8.93
2022-08-26T13:44:12.151Z,5.22
2022-08-26T13:46:40.191Z,11.52
2022-08-26T13:49:08.548Z,7.70
2022-08-26T13:51:36.472Z,5.85
2022-08-26T13:54:05.538Z,5.00
2022-08-26T13:59:02.917Z,6.75
2022-08-26T14:01:33.468Z,7.80
2022-08-26T14:04:02.647Z,7.35
2022-08-26T14:06:30.924Z,8.30
2022-08-26T14:09:00.285Z,6.82
2022-08-26T14:11:28.930Z,8.40
2022-08-26T14:14:05.175Z,6.55
2022-08-26T14:16:37.575Z,8.18
2022-08-26T14:19:25.421Z,6.07
2022-08-26T14:21:53.498Z,7.10
2022-08-26T14:24:21.891Z,10.50
2022-08-26T14:26:49.878Z,9.63
2022-08-26T14:29:17.807Z,5.53
2022-08-26T14:31:47.010Z,5.55
2022-08-26T14:34:15.212Z,7.40
2022-08-26T14:36:43.477Z,10.23
2022-08-26T14:39:14.603Z,11.43
2022-08-26T14:41:54.426Z,7.55
2022-08-26T14:44:25.374Z,7.10
2022-08-26T14:46:55.039Z,8.00
2022-08-26T14:49:24.364Z,9.18
2022-08-26T14:51:52.273Z,7.95
2022-08-26T14:54:20.435Z,6.28
2022-08-26T14:56:50.168Z,8.73
2022-08-26T14:59:21.122Z,10.85
2022-08-26T15:01:50.363Z,6.88
2022-08-26T15:04:19.943Z,9.50
2022-08-26T15:06:48.474Z,10.50
2022-08-26T15:09:16.891Z,5.90
2022-08-26T15:11:44.823Z,7.72
2022-08-26T15:14:19.441Z,6.00
2022-08-26T15:16:48.456Z,7.47
2022-08-26T15:19:16.769Z,9.35
2022-08-26T15:21:47.238Z,8.77
2022-08-26T15:24:17.780Z,5.05
2022-08-26T15:26:48.296Z,11.27
2022-08-26T15:29:16.553Z,6.30
2022-08-26T15:31:44.487Z,6.03
2022-08-26T15:34:16.759Z,7.15
2022-08-26T15:36:47.857Z,5.35
2022-08-26T15:39:17.386Z,8.80
2022-08-26T15:41:46.047Z,4.97
2022-08-26T15:44:17.698Z,11.15
2022-08-26T15:46:45.864Z,8.27
2022-08-26T15:49:17.796Z,5.90
2022-08-26T15:51:50.338Z,6.95
2022-08-26T15:54:21.721Z,8.15
2022-08-26T15:56:52.168Z,6.95
2022-08-26T15:59:22.182Z,8.50
2022-08-26T16:01:50.602Z,6.72
2022-08-26T16:04:18.663Z,7.55
2022-08-26T16:06:50.214Z,8.02
2022-08-26T16:09:18.822Z,4.82
2022-08-26T16:11:46.689Z,11.88
2022-08-26T16:14:14.547Z,8.43
2022-08-26T16:16:42.646Z,9.13
2022-08-26T16:19:11.570Z,6.22
2022-08-26T16:24:10.361Z,6.50
2022-08-26T16:26:40.470Z,9.55
2022-08-26T16:29:10.622Z,8.27
2022-08-26T16:31:39.108Z,4.57
2022-08-26T16:34:07.779Z,5.53
2022-08-26T16:36:36.916Z,7.68
2022-08-26T16:39:05.970Z,3.05
2022-08-26T16:44:03.760Z,8.57
2022-08-26T16:46:31.750Z,14.95
2022-08-26T16:49:03.442Z,9.38
2022-08-26T16:51:32.378Z,7.40
2022-08-26T16:54:06.982Z,10.23
2022-08-26T16:56:36.757Z,9.90
2022-08-26T16:59:05.768Z,6.10
2022-08-26T17:04:01.535Z,6.05
2022-08-26T17:06:29.720Z,6.32
2022-08-26T17:08:57.588Z,5.90
2022-08-26T17:11:25.443Z,5.40
2022-08-26T17:13:54.659Z,6.03
2022-08-26T17:16:26.589Z,10.05
2022-08-26T17:18:56.045Z,5.47
2022-08-26T17:21:23.923Z,6.25
2022-08-26T17:23:51.787Z,7.05
2022-08-26T17:26:19.663Z,7.88
2022-08-26T17:28:47.760Z,6.95
2022-08-26T17:31:17.159Z,5.68
2022-08-26T17:33:47.846Z,7.85
2022-08-26T17:36:18.694Z,5.50
2022-08-26T17:38:46.649Z,8.07
2022-08-26T17:41:17.768Z,7.05
2022-08-26T17:43:45.951Z,9.15
2022-08-26T17:46:14.336Z,4.33
2022-08-26T17:48:43.889Z,6.30
2022-08-26T17:51:13.356Z,6.95
2022-08-26T17:53:42.207Z,11.60
2022-08-26T17:56:12.974Z,8.18
2022-08-26T17:58:47.956Z,5.85
2022-08-26T18:01:18.908Z,6.78
2022-08-26T18:03:48.275Z,7.72
2022-08-26T18:06:16.561Z,4.88
2022-08-26T18:08:44.934Z,7.27
2022-08-26T18:11:14.973Z,4.78
2022-08-26T18:13:47.021Z,4.85
2022-08-26T18:16:17.888Z,6.40
2022-08-26T18:18:46.456Z,5.95
2022-08-26T18:21:17.850Z,7.03
2022-08-26T18:23:46.672Z,5.38
2022-08-26T18:26:18.028Z,1.88
2022-08-26T18:28:45.951Z,3.42
2022-08-26T18:31:13.930Z,3.72
2022-08-26T18:33:43.004Z,4.55
2022-08-26T18:38:45.090Z,6.90
2022-08-26T18:41:14.253Z,3.47
2022-08-26T18:43:42.421Z,7.60
2022-08-26T18:46:11.435Z,4.27
2022-08-26T18:53:42.411Z,6.22
2022-08-26T18:56:10.247Z,5.50
2022-08-26T18:58:38.272Z,5.72
2022-08-26T19:01:06.291Z,6.22
2022-08-26T19:03:34.370Z,10.57
2022-08-26T19:06:02.253Z,5.03
2022-08-26T19:08:30.137Z,6.25
2022-08-26T19:11:00.480Z,5.43
2022-08-26T19:13:28.421Z,2.58
2022-08-26T19:15:56.290Z,7.50
2022-08-26T19:18:24.156Z,7.95
2022-08-26T19:20:52.014Z,8.60
2022-08-26T19:23:31.595Z,4.78
2022-08-26T19:26:04.618Z,5.15
2022-08-26T19:28:32.634Z,8.88
2022-08-26T19:31:00.873Z,5.25
2022-08-26T19:33:28.840Z,3.57
2022-08-26T19:35:56.877Z,7.05
2022-08-26T19:38:24.747Z,4.85
2022-08-26T19:40:55.677Z,9.18
2022-08-26T19:43:24.949Z,6.95
2022-08-26T19:45:53.230Z,8.15
2022-08-26T19:48:21.204Z,4.55
2022-08-26T19:50:49.547Z,6.68
2022-08-26T19:53:17.403Z,5.32
2022-08-26T19:55:45.307Z,6.07
2022-08-26T19:58:13.409Z,5.28
2022-08-26T20:00:42.807Z,4.47
2022-08-26T20:03:15.834Z,6.32
2022-08-26T20:05:44.083Z,3.40
2022-08-26T20:08:22.066Z,7.18
2022-08-26T20:10:51.405Z,13.50
2022-08-26T20:13:19.506Z,13.38
2022-08-26T20:15:48.940Z,16.33
2022-08-26T20:18:34.069Z,16.85
2022-08-26T20:21:19.321Z,23.15
2022-08-26T20:23:47.281Z,29.05
2022-08-26T20:26:15.198Z,25.02
2022-08-26T20:28:43.064Z,28.30
2022-08-26T20:31:12.658Z,25.33
2022-08-26T20:33:46.372Z,25.90
2022-08-26T20:36:15.924Z,24.67
2022-08-26T20:38:45.934Z,24.02
2022-08-26T20:41:14.044Z,24.58
2022-08-26T20:43:43.570Z,16.42
2022-08-26T20:46:18.117Z,18.90
2022-08-26T20:48:47.592Z,16.88
2022-08-26T20:51:15.660Z,17.05
2022-08-26T20:53:44.245Z,18.90
2022-08-26T20:56:14.066Z,14.52
2022-08-26T20:58:42.426Z,13.27
2022-08-26T21:01:20.116Z,9.88
2022-08-26T21:03:48.497Z,14.98
2022-08-26T21:06:16.413Z,11.48
2022-08-26T21:08:44.922Z,7.93
2022-08-26T21:11:13.401Z,9.88
2022-08-26T21:14:01.504Z,10.38
2022-08-26T21:16:30.680Z,7.33
2022-08-26T21:19:00.478Z,13.13
2022-08-26T21:21:29.075Z,7.72
2022-08-26T21:23:57.527Z,7.05
2022-08-26T21:26:25.738Z,8.30
2022-08-26T21:28:54.172Z,9.70
2022-08-26T21:31:23.808Z,9.95
2022-08-26T21:33:54.025Z,9.00
2022-08-26T21:36:22.024Z,5.15
2022-08-26T21:38:49.922Z,8.60
2022-08-26T21:41:22.054Z,11.98
2022-08-26T21:43:51.253Z,5.82
2022-08-26T21:46:22.450Z,12.27
2022-08-26T21:48:55.134Z,8.85
2022-08-26T21:51:25.373Z,7.88
2022-08-26T21:53:53.740Z,10.02
2022-08-26T21:56:23.190Z,12.95
2022-08-26T21:58:52.479Z,8.23
2022-08-26T22:01:23.284Z,5.60
2022-08-26T22:03:53.353Z,6.13
2022-08-26T22:06:23.542Z,7.30
2022-08-26T22:08:51.748Z,10.25
2022-08-26T22:11:19.770Z,4.47
2022-08-26T22:13:49.556Z,10.95
2022-08-26T22:16:18.775Z,8.23
2022-08-26T22:18:46.873Z,8.55
2022-08-26T22:21:18.779Z,10.82
2022-08-26T22:23:47.408Z,5.22
2022-08-26T22:26:25.611Z,7.93
2022-08-26T22:28:58.802Z,6.68
2022-08-26T22:31:37.497Z,6.65
2022-08-26T22:34:08.413Z,7.72
2022-08-26T22:36:43.128Z,5.22
2022-08-26T22:39:13.101Z,5.78
2022-08-26T22:41:41.249Z,5.40
2022-08-26T22:44:09.111Z,9.03
2022-08-26T22:46:38.554Z,5.88
2022-08-26T22:49:07.129Z,8.05
2022-08-26T22:51:35.031Z,8.15
2022-08-26T22:54:04.660Z,7.70
2022-08-26T22:56:32.566Z,8.13
2022-08-26T22:59:00.447Z,6.57
2022-08-26T23:01:28.797Z,7.50
2022-08-26T23:03:56.859Z,8.18
2022-08-26T23:06:24.710Z,10.13
2022-08-26T23:08:53.100Z,9.60
2022-08-26T23:11:22.799Z,4.60
2022-08-26T23:13:50.689Z,12.95
2022-08-26T23:16:18.563Z,14.30
2022-08-26T23:18:46.860Z,8.10
2022-08-26T23:21:15.176Z,11.60
2022-08-26T23:23:44.270Z,7.30
2022-08-26T23:28:47.042Z,7.05
2022-08-26T23:31:15.319Z,7.40
2022-08-26T23:34:00.437Z,5.90
2022-08-26T23:36:31.003Z,6.47
2022-08-26T23:39:03.112Z,12.75
2022-08-26T23:41:30.974Z,9.70
2022-08-26T23:44:03.467Z,6.18
2022-08-26T23:46:32.203Z,7.60
2022-08-26T23:48:59.985Z,8.80
2022-08-26T23:51:46.034Z,8.07
2022-08-26T23:54:14.898Z,6.75
2022-08-26T23:56:43.068Z,9.63
2022-08-26T23:59:12.863Z,7.93
